sensor_id;sensor_type;location;lat;lon;timestamp;P1;durP1;ratioP1;P2;durP2;ratioP2
2213;SDS011;1113;42.018;23.986;2022-11-20T00:00:27;6.10;;;2.90;;
2213;SDS011;1113;42.018;23.986;2022-11-20T00:02:54;2.77;;;1.60;;
2213;SDS011;1113;42.018;23.986;2022-11-20T00:05:20;5.27;;;1.83;;
2213;SDS011;1113;42.018;23.986;2022-11-20T00:07:51;8.40;;;4.53;;
2213;SDS011;1113;42.018;23.986;2022-11-20T00:10:18;4.50;;;1.80;;
2213;SDS011;1113;42.018;23.986;2022-11-20T00:12:45;5.57;;;2.33;;
2213;SDS011;1113;42.018;23.986;2022-11-20T00:15:11;2.47;;;1.43;;
2213;SDS011;1113;42.018;23.986;2022-11-20T00:17:39;3.47;;;2.80;;
2213;SDS011;1113;42.018;23.986;2022-11-20T00:20:06;2.63;;;1.80;;
2213;SDS011;1113;42.018;23.986;2022-11-20T00:22:33;4.00;;;1.80;;
2213;SDS011;1113;42.018;23.986;2022-11-20T00:24:59;2.60;;;1.57;;
2213;SDS011;1113;42.018;23.986;2022-11-20T00:27:26;5.70;;;2.80;;
2213;SDS011;1113;42.018;23.986;2022-11-20T00:29:52;2.20;;;1.53;;
2213;SDS011;1113;42.018;23.986;2022-11-20T00:32:19;4.90;;;1.43;;
2213;SDS011;1113;42.018;23.986;2022-11-20T00:34:47;4.80;;;1.87;;
2213;SDS011;1113;42.018;23.986;2022-11-20T00:37:13;4.93;;;1.70;;
2213;SDS011;1113;42.018;23.986;2022-11-20T00:39:40;7.00;;;4.83;;
2213;SDS011;1113;42.018;23.986;2022-11-20T00:42:06;3.50;;;2.10;;
2213;SDS011;1113;42.018;23.986;2022-11-20T00:44:33;3.23;;;2.30;;
2213;SDS011;1113;42.018;23.986;2022-11-20T00:46:59;10.30;;;5.37;;
2213;SDS011;1113;42.018;23.986;2022-11-20T00:49:26;5.40;;;1.43;;
2213;SDS011;1113;42.018;23.986;2022-11-20T00:51:54;2.70;;;1.60;;
2213;SDS011;1113;42.018;23.986;2022-11-20T00:54:20;3.03;;;2.10;;
2213;SDS011;1113;42.018;23.986;2022-11-20T00:56:47;4.67;;;2.37;;
2213;SDS011;1113;42.018;23.986;2022-11-20T00:59:13;7.13;;;3.70;;
2213;SDS011;1113;42.018;23.986;2022-11-20T01:01:40;2.60;;;1.60;;
2213;SDS011;1113;42.018;23.986;2022-11-20T01:04:06;4.10;;;1.80;;
2213;SDS011;1113;42.018;23.986;2022-11-20T01:06:33;4.97;;;2.40;;
2213;SDS011;1113;42.018;23.986;2022-11-20T01:09:03;8.03;;;4.57;;
2213;SDS011;1113;42.018;23.986;2022-11-20T01:11:31;6.37;;;2.33;;
2213;SDS011;1113;42.018;23.986;2022-11-20T01:13:58;4.23;;;2.07;;
2213;SDS011;1113;42.018;23.986;2022-11-20T01:16:26;4.93;;;2.17;;
2213;SDS011;1113;42.018;23.986;2022-11-20T01:18:53;2.53;;;1.73;;
2213;SDS011;1113;42.018;23.986;2022-11-20T01:21:21;4.70;;;1.90;;
2213;SDS011;1113;42.018;23.986;2022-11-20T01:23:48;3.40;;;2.03;;
2213;SDS011;1113;42.018;23.986;2022-11-20T01:26:17;5.30;;;2.03;;
2213;SDS011;1113;42.018;23.986;2022-11-20T01:28:43;3.63;;;1.40;;
2213;SDS011;1113;42.018;23.986;2022-11-20T01:31:10;2.93;;;1.30;;
2213;SDS011;1113;42.018;23.986;2022-11-20T01:33:38;6.70;;;2.37;;
2213;SDS011;1113;42.018;23.986;2022-11-20T01:36:05;4.53;;;1.37;;
2213;SDS011;1113;42.018;23.986;2022-11-20T01:38:32;2.70;;;1.50;;
2213;SDS011;1113;42.018;23.986;2022-11-20T01:40:58;2.40;;;1.20;;
2213;SDS011;1113;42.018;23.986;2022-11-20T01:43:26;2.77;;;1.27;;
2213;SDS011;1113;42.018;23.986;2022-11-20T01:45:58;3.53;;;1.73;;
2213;SDS011;1113;42.018;23.986;2022-11-20T01:48:25;5.03;;;1.73;;
2213;SDS011;1113;42.018;23.986;2022-11-20T01:50:53;2.37;;;1.70;;
2213;SDS011;1113;42.018;23.986;2022-11-20T01:53:21;2.80;;;1.40;;
2213;SDS011;1113;42.018;23.986;2022-11-20T01:55:49;5.60;;;1.70;;
2213;SDS011;1113;42.018;23.986;2022-11-20T01:58:16;5.03;;;1.47;;
2213;SDS011;1113;42.018;23.986;2022-11-20T02:00:47;4.43;;;1.90;;
2213;SDS011;1113;42.018;23.986;2022-11-20T02:03:15;3.27;;;1.50;;
2213;SDS011;1113;42.018;23.986;2022-11-20T02:05:43;2.40;;;1.23;;
2213;SDS011;1113;42.018;23.986;2022-11-20T02:08:11;7.60;;;1.80;;
2213;SDS011;1113;42.018;23.986;2022-11-20T02:10:38;5.83;;;1.63;;
2213;SDS011;1113;42.018;23.986;2022-11-20T02:13:04;2.10;;;1.33;;
2213;SDS011;1113;42.018;23.986;2022-11-20T02:15:50;5.73;;;1.70;;
2213;SDS011;1113;42.018;23.986;2022-11-20T02:18:17;6.73;;;1.80;;
2213;SDS011;1113;42.018;23.986;2022-11-20T02:20:45;2.03;;;1.10;;
2213;SDS011;1113;42.018;23.986;2022-11-20T02:23:13;4.10;;;1.40;;
2213;SDS011;1113;42.018;23.986;2022-11-20T02:25:43;3.97;;;1.77;;
2213;SDS011;1113;42.018;23.986;2022-11-20T02:28:09;2.60;;;1.27;;
2213;SDS011;1113;42.018;23.986;2022-11-20T02:30:36;3.83;;;1.40;;
2213;SDS011;1113;42.018;23.986;2022-11-20T02:33:02;2.33;;;1.30;;
2213;SDS011;1113;42.018;23.986;2022-11-20T02:35:39;3.80;;;1.47;;
2213;SDS011;1113;42.018;23.986;2022-11-20T02:38:06;4.43;;;1.53;;
2213;SDS011;1113;42.018;23.986;2022-11-20T02:40:33;2.30;;;1.37;;
2213;SDS011;1113;42.018;23.986;2022-11-20T02:43:01;3.77;;;1.47;;
2213;SDS011;1113;42.018;23.986;2022-11-20T02:45:27;1.77;;;1.07;;
2213;SDS011;1113;42.018;23.986;2022-11-20T02:47:54;3.60;;;1.47;;
2213;SDS011;1113;42.018;23.986;2022-11-20T02:50:20;5.10;;;1.23;;
2213;SDS011;1113;42.018;23.986;2022-11-20T02:52:47;2.27;;;1.30;;
2213;SDS011;1113;42.018;23.986;2022-11-20T02:55:13;4.50;;;1.53;;
2213;SDS011;1113;42.018;23.986;2022-11-20T02:57:40;4.33;;;1.40;;
2213;SDS011;1113;42.018;23.986;2022-11-20T03:00:10;4.93;;;1.60;;
2213;SDS011;1113;42.018;23.986;2022-11-20T03:02:36;2.53;;;1.17;;
2213;SDS011;1113;42.018;23.986;2022-11-20T03:05:03;2.83;;;1.30;;
2213;SDS011;1113;42.018;23.986;2022-11-20T03:07:30;3.57;;;1.30;;
2213;SDS011;1113;42.018;23.986;2022-11-20T03:09:56;3.00;;;1.67;;
2213;SDS011;1113;42.018;23.986;2022-11-20T03:12:23;2.50;;;1.30;;
2213;SDS011;1113;42.018;23.986;2022-11-20T03:14:49;4.50;;;1.83;;
2213;SDS011;1113;42.018;23.986;2022-11-20T03:17:17;2.27;;;1.20;;
2213;SDS011;1113;42.018;23.986;2022-11-20T03:19:44;3.50;;;1.63;;
2213;SDS011;1113;42.018;23.986;2022-11-20T03:22:10;3.40;;;1.30;;
2213;SDS011;1113;42.018;23.986;2022-11-20T03:24:36;5.20;;;1.70;;
2213;SDS011;1113;42.018;23.986;2022-11-20T03:27:03;4.17;;;1.40;;
2213;SDS011;1113;42.018;23.986;2022-11-20T03:29:29;2.93;;;1.27;;
2213;SDS011;1113;42.018;23.986;2022-11-20T03:31:56;3.27;;;1.80;;
2213;SDS011;1113;42.018;23.986;2022-11-20T03:34:24;2.60;;;1.60;;
2213;SDS011;1113;42.018;23.986;2022-11-20T03:36:50;3.00;;;1.70;;
2213;SDS011;1113;42.018;23.986;2022-11-20T03:39:17;2.23;;;1.17;;
2213;SDS011;1113;42.018;23.986;2022-11-20T03:41:43;3.00;;;1.40;;
2213;SDS011;1113;42.018;23.986;2022-11-20T03:44:10;2.40;;;1.43;;
2213;SDS011;1113;42.018;23.986;2022-11-20T03:46:37;2.00;;;1.20;;
2213;SDS011;1113;42.018;23.986;2022-11-20T03:49:04;2.43;;;1.00;;
2213;SDS011;1113;42.018;23.986;2022-11-20T03:51:32;2.90;;;1.67;;
2213;SDS011;1113;42.018;23.986;2022-11-20T03:54:00;3.10;;;1.47;;
2213;SDS011;1113;42.018;23.986;2022-11-20T03:56:28;2.13;;;1.50;;
2213;SDS011;1113;42.018;23.986;2022-11-20T03:58:54;2.43;;;1.40;;
2213;SDS011;1113;42.018;23.986;2022-11-20T04:01:22;2.23;;;1.33;;
2213;SDS011;1113;42.018;23.986;2022-11-20T04:03:48;5.33;;;1.40;;
2213;SDS011;1113;42.018;23.986;2022-11-20T04:06:16;3.07;;;1.30;;
2213;SDS011;1113;42.018;23.986;2022-11-20T04:08:44;4.27;;;1.57;;
2213;SDS011;1113;42.018;23.986;2022-11-20T04:11:11;2.60;;;1.27;;
2213;SDS011;1113;42.018;23.986;2022-11-20T04:13:38;4.03;;;1.60;;
2213;SDS011;1113;42.018;23.986;2022-11-20T04:16:05;2.80;;;1.27;;
2213;SDS011;1113;42.018;23.986;2022-11-20T04:18:32;5.40;;;1.53;;
2213;SDS011;1113;42.018;23.986;2022-11-20T04:20:58;5.43;;;1.40;;
2213;SDS011;1113;42.018;23.986;2022-11-20T04:23:25;3.00;;;1.30;;
2213;SDS011;1113;42.018;23.986;2022-11-20T04:25:53;4.70;;;1.90;;
2213;SDS011;1113;42.018;23.986;2022-11-20T04:28:20;3.33;;;1.30;;
2213;SDS011;1113;42.018;23.986;2022-11-20T04:30:46;3.80;;;1.30;;
2213;SDS011;1113;42.018;23.986;2022-11-20T04:33:13;6.50;;;1.43;;
2213;SDS011;1113;42.018;23.986;2022-11-20T04:35:39;3.23;;;1.60;;
2213;SDS011;1113;42.018;23.986;2022-11-20T04:38:06;2.00;;;1.13;;
2213;SDS011;1113;42.018;23.986;2022-11-20T04:40:32;3.07;;;1.40;;
2213;SDS011;1113;42.018;23.986;2022-11-20T04:43:00;3.50;;;1.53;;
2213;SDS011;1113;42.018;23.986;2022-11-20T04:45:27;2.30;;;1.40;;
2213;SDS011;1113;42.018;23.986;2022-11-20T04:47:53;2.17;;;1.00;;
2213;SDS011;1113;42.018;23.986;2022-11-20T04:50:20;3.00;;;1.47;;
2213;SDS011;1113;42.018;23.986;2022-11-20T04:52:46;2.23;;;1.03;;
2213;SDS011;1113;42.018;23.986;2022-11-20T04:55:13;3.30;;;1.20;;
2213;SDS011;1113;42.018;23.986;2022-11-20T04:57:39;4.90;;;1.63;;
2213;SDS011;1113;42.018;23.986;2022-11-20T05:00:08;7.50;;;1.60;;
2213;SDS011;1113;42.018;23.986;2022-11-20T05:02:35;3.27;;;1.27;;
2213;SDS011;1113;42.018;23.986;2022-11-20T05:05:01;3.40;;;1.37;;
2213;SDS011;1113;42.018;23.986;2022-11-20T05:07:28;2.07;;;1.20;;
2213;SDS011;1113;42.018;23.986;2022-11-20T05:09:54;2.57;;;1.10;;
2213;SDS011;1113;42.018;23.986;2022-11-20T05:12:21;4.40;;;1.40;;
2213;SDS011;1113;42.018;23.986;2022-11-20T05:14:47;2.40;;;1.30;;
2213;SDS011;1113;42.018;23.986;2022-11-20T05:17:15;3.77;;;1.50;;
2213;SDS011;1113;42.018;23.986;2022-11-20T05:19:42;3.60;;;1.10;;
2213;SDS011;1113;42.018;23.986;2022-11-20T05:22:08;4.17;;;1.30;;
2213;SDS011;1113;42.018;23.986;2022-11-20T05:24:35;3.90;;;1.40;;
2213;SDS011;1113;42.018;23.986;2022-11-20T05:27:01;3.53;;;1.33;;
2213;SDS011;1113;42.018;23.986;2022-11-20T05:29:28;3.70;;;1.60;;
2213;SDS011;1113;42.018;23.986;2022-11-20T05:31:54;3.10;;;1.30;;
2213;SDS011;1113;42.018;23.986;2022-11-20T05:34:22;5.00;;;1.40;;
2213;SDS011;1113;42.018;23.986;2022-11-20T05:36:48;4.93;;;1.80;;
2213;SDS011;1113;42.018;23.986;2022-11-20T05:39:15;3.00;;;1.27;;
2213;SDS011;1113;42.018;23.986;2022-11-20T05:41:41;3.30;;;1.70;;
2213;SDS011;1113;42.018;23.986;2022-11-20T05:44:09;4.10;;;1.47;;
2213;SDS011;1113;42.018;23.986;2022-11-20T05:46:36;2.90;;;1.33;;
2213;SDS011;1113;42.018;23.986;2022-11-20T05:49:02;4.60;;;1.63;;
2213;SDS011;1113;42.018;23.986;2022-11-20T05:51:30;6.10;;;1.50;;
2213;SDS011;1113;42.018;23.986;2022-11-20T05:53:57;3.73;;;1.20;;
2213;SDS011;1113;42.018;23.986;2022-11-20T05:56:23;4.40;;;1.60;;
2213;SDS011;1113;42.018;23.986;2022-11-20T05:58:50;2.80;;;1.23;;
2213;SDS011;1113;42.018;23.986;2022-11-20T06:01:17;2.37;;;1.10;;
2213;SDS011;1113;42.018;23.986;2022-11-20T06:03:44;2.70;;;1.30;;
2213;SDS011;1113;42.018;23.986;2022-11-20T06:06:12;2.80;;;1.47;;
2213;SDS011;1113;42.018;23.986;2022-11-20T06:08:40;3.00;;;1.50;;
2213;SDS011;1113;42.018;23.986;2022-11-20T06:11:08;3.73;;;1.70;;
2213;SDS011;1113;42.018;23.986;2022-11-20T06:13:35;3.60;;;2.00;;
2213;SDS011;1113;42.018;23.986;2022-11-20T06:16:05;2.87;;;1.47;;
2213;SDS011;1113;42.018;23.986;2022-11-20T06:18:32;8.27;;;5.60;;
2213;SDS011;1113;42.018;23.986;2022-11-20T06:20:59;3.00;;;1.60;;
2213;SDS011;1113;42.018;23.986;2022-11-20T06:23:27;7.00;;;2.77;;
2213;SDS011;1113;42.018;23.986;2022-11-20T06:25:55;4.03;;;1.40;;
2213;SDS011;1113;42.018;23.986;2022-11-20T06:28:21;4.53;;;2.00;;
2213;SDS011;1113;42.018;23.986;2022-11-20T06:30:48;9.20;;;2.83;;
2213;SDS011;1113;42.018;23.986;2022-11-20T06:33:14;4.83;;;2.03;;
2213;SDS011;1113;42.018;23.986;2022-11-20T06:35:41;3.20;;;1.50;;
2213;SDS011;1113;42.018;23.986;2022-11-20T06:38:07;4.60;;;1.90;;
2213;SDS011;1113;42.018;23.986;2022-11-20T06:40:34;6.20;;;1.50;;
2213;SDS011;1113;42.018;23.986;2022-11-20T06:43:02;3.97;;;1.60;;
2213;SDS011;1113;42.018;23.986;2022-11-20T06:45:28;5.73;;;2.50;;
2213;SDS011;1113;42.018;23.986;2022-11-20T06:47:56;4.30;;;2.27;;
2213;SDS011;1113;42.018;23.986;2022-11-20T06:50:24;6.33;;;1.97;;
2213;SDS011;1113;42.018;23.986;2022-11-20T06:52:50;3.60;;;1.80;;
2213;SDS011;1113;42.018;23.986;2022-11-20T06:55:17;4.07;;;1.87;;
2213;SDS011;1113;42.018;23.986;2022-11-20T06:57:43;2.60;;;1.50;;
2213;SDS011;1113;42.018;23.986;2022-11-20T07:00:12;6.37;;;1.90;;
2213;SDS011;1113;42.018;23.986;2022-11-20T07:02:39;6.47;;;1.60;;
2213;SDS011;1113;42.018;23.986;2022-11-20T07:05:12;4.73;;;1.70;;
2213;SDS011;1113;42.018;23.986;2022-11-20T07:07:55;4.50;;;2.00;;
2213;SDS011;1113;42.018;23.986;2022-11-20T07:10:21;4.60;;;2.23;;
2213;SDS011;1113;42.018;23.986;2022-11-20T07:12:48;4.17;;;1.50;;
2213;SDS011;1113;42.018;23.986;2022-11-20T07:15:16;4.50;;;1.63;;
2213;SDS011;1113;42.018;23.986;2022-11-20T07:17:43;3.37;;;1.57;;
2213;SDS011;1113;42.018;23.986;2022-11-20T07:20:10;5.13;;;1.70;;
2213;SDS011;1113;42.018;23.986;2022-11-20T07:22:36;4.23;;;1.97;;
2213;SDS011;1113;42.018;23.986;2022-11-20T07:25:03;6.10;;;2.07;;
2213;SDS011;1113;42.018;23.986;2022-11-20T07:27:30;6.80;;;1.60;;
2213;SDS011;1113;42.018;23.986;2022-11-20T07:29:57;4.90;;;1.57;;
2213;SDS011;1113;42.018;23.986;2022-11-20T07:32:28;7.10;;;2.30;;
2213;SDS011;1113;42.018;23.986;2022-11-20T07:34:55;2.40;;;1.43;;
2213;SDS011;1113;42.018;23.986;2022-11-20T07:37:23;3.37;;;1.83;;
2213;SDS011;1113;42.018;23.986;2022-11-20T07:39:54;3.47;;;1.30;;
2213;SDS011;1113;42.018;23.986;2022-11-20T07:42:25;3.70;;;1.93;;
2213;SDS011;1113;42.018;23.986;2022-11-20T07:44:51;3.97;;;2.20;;
2213;SDS011;1113;42.018;23.986;2022-11-20T07:47:18;5.30;;;1.80;;
2213;SDS011;1113;42.018;23.986;2022-11-20T07:49:46;5.50;;;2.00;;
2213;SDS011;1113;42.018;23.986;2022-11-20T07:52:12;5.70;;;1.90;;
2213;SDS011;1113;42.018;23.986;2022-11-20T07:54:39;10.77;;;3.00;;
2213;SDS011;1113;42.018;23.986;2022-11-20T07:57:05;4.80;;;1.73;;
2213;SDS011;1113;42.018;23.986;2022-11-20T07:59:32;9.20;;;2.57;;
2213;SDS011;1113;42.018;23.986;2022-11-20T08:01:58;7.57;;;3.60;;
2213;SDS011;1113;42.018;23.986;2022-11-20T08:04:25;7.93;;;2.93;;
2213;SDS011;1113;42.018;23.986;2022-11-20T08:06:53;5.83;;;2.10;;
2213;SDS011;1113;42.018;23.986;2022-11-20T08:09:19;10.10;;;5.33;;
2213;SDS011;1113;42.018;23.986;2022-11-20T08:11:46;10.17;;;2.80;;
2213;SDS011;1113;42.018;23.986;2022-11-20T08:14:29;4.43;;;1.80;;
2213;SDS011;1113;42.018;23.986;2022-11-20T08:16:56;5.03;;;2.07;;
2213;SDS011;1113;42.018;23.986;2022-11-20T08:19:22;6.67;;;2.43;;
2213;SDS011;1113;42.018;23.986;2022-11-20T08:21:49;6.17;;;2.00;;
2213;SDS011;1113;42.018;23.986;2022-11-20T08:24:17;7.63;;;2.50;;
2213;SDS011;1113;42.018;23.986;2022-11-20T08:26:43;8.23;;;1.90;;
2213;SDS011;1113;42.018;23.986;2022-11-20T08:29:10;8.50;;;1.70;;
2213;SDS011;1113;42.018;23.986;2022-11-20T08:31:36;8.63;;;2.07;;
2213;SDS011;1113;42.018;23.986;2022-11-20T08:34:03;5.33;;;2.60;;
2213;SDS011;1113;42.018;23.986;2022-11-20T08:36:32;5.97;;;2.30;;
2213;SDS011;1113;42.018;23.986;2022-11-20T08:38:58;12.93;;;2.20;;
2213;SDS011;1113;42.018;23.986;2022-11-20T08:41:26;6.60;;;2.20;;
2213;SDS011;1113;42.018;23.986;2022-11-20T08:43:54;7.97;;;3.33;;
2213;SDS011;1113;42.018;23.986;2022-11-20T08:46:20;11.03;;;4.03;;
2213;SDS011;1113;42.018;23.986;2022-11-20T08:48:47;10.87;;;2.60;;
2213;SDS011;1113;42.018;23.986;2022-11-20T08:51:14;7.10;;;2.87;;
2213;SDS011;1113;42.018;23.986;2022-11-20T08:53:41;11.27;;;4.67;;
2213;SDS011;1113;42.018;23.986;2022-11-20T08:56:07;4.43;;;1.83;;
2213;SDS011;1113;42.018;23.986;2022-11-20T08:58:36;7.63;;;2.60;;
2213;SDS011;1113;42.018;23.986;2022-11-20T09:01:03;9.63;;;2.80;;
2213;SDS011;1113;42.018;23.986;2022-11-20T09:03:29;11.33;;;2.40;;
2213;SDS011;1113;42.018;23.986;2022-11-20T09:05:56;10.67;;;2.87;;
2213;SDS011;1113;42.018;23.986;2022-11-20T09:08:23;8.13;;;2.60;;
2213;SDS011;1113;42.018;23.986;2022-11-20T09:10:51;6.97;;;2.03;;
2213;SDS011;1113;42.018;23.986;2022-11-20T09:13:17;6.83;;;1.60;;
2213;SDS011;1113;42.018;23.986;2022-11-20T09:15:45;10.37;;;3.13;;
2213;SDS011;1113;42.018;23.986;2022-11-20T09:18:12;10.73;;;3.07;;
2213;SDS011;1113;42.018;23.986;2022-11-20T09:20:39;4.67;;;1.77;;
2213;SDS011;1113;42.018;23.986;2022-11-20T09:23:06;6.23;;;2.70;;
2213;SDS011;1113;42.018;23.986;2022-11-20T09:25:32;10.30;;;2.03;;
2213;SDS011;1113;42.018;23.986;2022-11-20T09:27:59;7.43;;;2.27;;
2213;SDS011;1113;42.018;23.986;2022-11-20T09:30:25;3.83;;;1.80;;
2213;SDS011;1113;42.018;23.986;2022-11-20T09:32:53;9.73;;;2.00;;
2213;SDS011;1113;42.018;23.986;2022-11-20T09:35:20;3.67;;;1.80;;
2213;SDS011;1113;42.018;23.986;2022-11-20T09:37:47;9.43;;;2.57;;
2213;SDS011;1113;42.018;23.986;2022-11-20T09:40:17;6.80;;;1.63;;
2213;SDS011;1113;42.018;23.986;2022-11-20T09:42:45;11.37;;;2.37;;
2213;SDS011;1113;42.018;23.986;2022-11-20T09:45:18;8.57;;;2.40;;
2213;SDS011;1113;42.018;23.986;2022-11-20T09:47:50;5.17;;;1.70;;
2213;SDS011;1113;42.018;23.986;2022-11-20T09:50:24;16.53;;;2.93;;
2213;SDS011;1113;42.018;23.986;2022-11-20T09:52:54;6.37;;;2.43;;
2213;SDS011;1113;42.018;23.986;2022-11-20T09:55:26;10.63;;;2.33;;
2213;SDS011;1113;42.018;23.986;2022-11-20T09:57:54;10.53;;;2.40;;
2213;SDS011;1113;42.018;23.986;2022-11-20T10:00:21;13.00;;;2.80;;
2213;SDS011;1113;42.018;23.986;2022-11-20T10:02:48;15.70;;;3.07;;
2213;SDS011;1113;42.018;23.986;2022-11-20T10:05:18;9.00;;;2.20;;
2213;SDS011;1113;42.018;23.986;2022-11-20T10:07:51;8.40;;;2.63;;
2213;SDS011;1113;42.018;23.986;2022-11-20T10:10:26;8.03;;;3.37;;
2213;SDS011;1113;42.018;23.986;2022-11-20T10:12:59;5.90;;;1.97;;
2213;SDS011;1113;42.018;23.986;2022-11-20T10:15:29;11.60;;;3.20;;
2213;SDS011;1113;42.018;23.986;2022-11-20T10:18:09;7.17;;;2.70;;
2213;SDS011;1113;42.018;23.986;2022-11-20T10:20:40;9.70;;;3.00;;
2213;SDS011;1113;42.018;23.986;2022-11-20T10:23:19;13.10;;;3.50;;
2213;SDS011;1113;42.018;23.986;2022-11-20T10:25:49;9.40;;;2.70;;
2213;SDS011;1113;42.018;23.986;2022-11-20T10:28:19;13.60;;;2.97;;
2213;SDS011;1113;42.018;23.986;2022-11-20T10:30:48;11.23;;;3.60;;
2213;SDS011;1113;42.018;23.986;2022-11-20T10:33:17;11.77;;;3.40;;
2213;SDS011;1113;42.018;23.986;2022-11-20T10:36:00;13.80;;;3.53;;
2213;SDS011;1113;42.018;23.986;2022-11-20T10:38:47;11.20;;;2.50;;
2213;SDS011;1113;42.018;23.986;2022-11-20T10:42:03;14.10;;;2.93;;
2213;SDS011;1113;42.018;23.986;2022-11-20T10:44:14;12.27;;;3.20;;
2213;SDS011;1113;42.018;23.986;2022-11-20T10:47:20;10.07;;;3.17;;
2213;SDS011;1113;42.018;23.986;2022-11-20T10:49:50;17.33;;;3.70;;
2213;SDS011;1113;42.018;23.986;2022-11-20T10:52:20;11.97;;;4.10;;
2213;SDS011;1113;42.018;23.986;2022-11-20T10:55:11;13.80;;;3.87;;
2213;SDS011;1113;42.018;23.986;2022-11-20T10:57:57;13.10;;;2.87;;
2213;SDS011;1113;42.018;23.986;2022-11-20T11:00:30;9.87;;;2.40;;
2213;SDS011;1113;42.018;23.986;2022-11-20T11:02:57;7.83;;;2.90;;
2213;SDS011;1113;42.018;23.986;2022-11-20T11:05:32;7.00;;;1.90;;
2213;SDS011;1113;42.018;23.986;2022-11-20T11:07:59;9.77;;;2.37;;
2213;SDS011;1113;42.018;23.986;2022-11-20T11:10:28;10.47;;;3.00;;
2213;SDS011;1113;42.018;23.986;2022-11-20T11:12:59;10.53;;;3.50;;
2213;SDS011;1113;42.018;23.986;2022-11-20T11:15:26;9.37;;;2.10;;
2213;SDS011;1113;42.018;23.986;2022-11-20T11:17:53;6.37;;;1.90;;
2213;SDS011;1113;42.018;23.986;2022-11-20T11:20:20;10.93;;;2.00;;
2213;SDS011;1113;42.018;23.986;2022-11-20T11:22:48;6.70;;;2.10;;
2213;SDS011;1113;42.018;23.986;2022-11-20T11:25:18;9.33;;;2.70;;
2213;SDS011;1113;42.018;23.986;2022-11-20T11:27:47;5.40;;;2.40;;
2213;SDS011;1113;42.018;23.986;2022-11-20T11:30:23;5.73;;;2.40;;
2213;SDS011;1113;42.018;23.986;2022-11-20T11:33:01;11.77;;;3.57;;
2213;SDS011;1113;42.018;23.986;2022-11-20T11:35:29;6.97;;;1.97;;
2213;SDS011;1113;42.018;23.986;2022-11-20T11:38:02;6.33;;;2.47;;
2213;SDS011;1113;42.018;23.986;2022-11-20T11:40:29;10.30;;;2.57;;
2213;SDS011;1113;42.018;23.986;2022-11-20T11:42:58;7.33;;;2.13;;
2213;SDS011;1113;42.018;23.986;2022-11-20T11:45:25;9.63;;;2.53;;
2213;SDS011;1113;42.018;23.986;2022-11-20T11:47:51;9.57;;;2.50;;
2213;SDS011;1113;42.018;23.986;2022-11-20T11:50:20;12.93;;;2.23;;
2213;SDS011;1113;42.018;23.986;2022-11-20T11:52:49;10.80;;;2.57;;
2213;SDS011;1113;42.018;23.986;2022-11-20T11:55:17;9.50;;;2.37;;
2213;SDS011;1113;42.018;23.986;2022-11-20T11:57:47;9.53;;;3.30;;
2213;SDS011;1113;42.018;23.986;2022-11-20T12:00:17;9.93;;;2.53;;
2213;SDS011;1113;42.018;23.986;2022-11-20T12:02:48;10.93;;;2.73;;
2213;SDS011;1113;42.018;23.986;2022-11-20T12:05:19;11.20;;;2.10;;
2213;SDS011;1113;42.018;23.986;2022-11-20T12:07:47;8.70;;;2.33;;
2213;SDS011;1113;42.018;23.986;2022-11-20T12:10:19;10.50;;;2.67;;
2213;SDS011;1113;42.018;23.986;2022-11-20T12:12:47;12.03;;;2.70;;
2213;SDS011;1113;42.018;23.986;2022-11-20T12:15:20;15.83;;;2.87;;
2213;SDS011;1113;42.018;23.986;2022-11-20T12:17:49;7.47;;;2.57;;
2213;SDS011;1113;42.018;23.986;2022-11-20T12:20:15;12.37;;;3.17;;
2213;SDS011;1113;42.018;23.986;2022-11-20T12:22:44;8.77;;;2.90;;
2213;SDS011;1113;42.018;23.986;2022-11-20T12:25:16;11.30;;;2.70;;
2213;SDS011;1113;42.018;23.986;2022-11-20T12:27:48;7.10;;;2.37;;
2213;SDS011;1113;42.018;23.986;2022-11-20T12:30:19;7.63;;;2.70;;
2213;SDS011;1113;42.018;23.986;2022-11-20T12:32:50;11.67;;;2.43;;
2213;SDS011;1113;42.018;23.986;2022-11-20T12:35:30;8.27;;;2.37;;
2213;SDS011;1113;42.018;23.986;2022-11-20T12:38:04;15.47;;;3.30;;
2213;SDS011;1113;42.018;23.986;2022-11-20T12:40:35;16.50;;;3.10;;
2213;SDS011;1113;42.018;23.986;2022-11-20T12:43:10;11.43;;;2.93;;
2213;SDS011;1113;42.018;23.986;2022-11-20T12:46:01;9.70;;;2.30;;
2213;SDS011;1113;42.018;23.986;2022-11-20T12:48:38;11.33;;;2.70;;
2213;SDS011;1113;42.018;23.986;2022-11-20T12:51:09;8.70;;;2.50;;
2213;SDS011;1113;42.018;23.986;2022-11-20T12:53:43;11.83;;;2.70;;
2213;SDS011;1113;42.018;23.986;2022-11-20T12:56:13;8.90;;;2.40;;
2213;SDS011;1113;42.018;23.986;2022-11-20T12:58:44;12.30;;;2.70;;
2213;SDS011;1113;42.018;23.986;2022-11-20T13:01:19;10.50;;;2.53;;
2213;SDS011;1113;42.018;23.986;2022-11-20T13:04:03;8.40;;;2.53;;
2213;SDS011;1113;42.018;23.986;2022-11-20T13:06:33;5.70;;;2.30;;
2213;SDS011;1113;42.018;23.986;2022-11-20T13:09:00;5.40;;;1.50;;
2213;SDS011;1113;42.018;23.986;2022-11-20T13:11:32;4.00;;;1.60;;
2213;SDS011;1113;42.018;23.986;2022-11-20T13:14:04;4.10;;;1.37;;
2213;SDS011;1113;42.018;23.986;2022-11-20T13:16:35;6.37;;;1.87;;
2213;SDS011;1113;42.018;23.986;2022-11-20T13:19:02;6.33;;;1.73;;
2213;SDS011;1113;42.018;23.986;2022-11-20T13:21:35;7.60;;;1.50;;
2213;SDS011;1113;42.018;23.986;2022-11-20T13:24:05;5.50;;;1.80;;
2213;SDS011;1113;42.018;23.986;2022-11-20T13:26:31;4.33;;;1.30;;
2213;SDS011;1113;42.018;23.986;2022-11-20T13:29:02;4.97;;;1.57;;
2213;SDS011;1113;42.018;23.986;2022-11-20T13:31:35;3.40;;;1.30;;
2213;SDS011;1113;42.018;23.986;2022-11-20T13:34:04;2.40;;;1.37;;
2213;SDS011;1113;42.018;23.986;2022-11-20T13:36:32;3.37;;;1.37;;
2213;SDS011;1113;42.018;23.986;2022-11-20T13:39:00;3.07;;;1.40;;
2213;SDS011;1113;42.018;23.986;2022-11-20T13:41:29;5.03;;;1.70;;
2213;SDS011;1113;42.018;23.986;2022-11-20T13:44:04;6.40;;;3.27;;
2213;SDS011;1113;42.018;23.986;2022-11-20T13:46:37;8.93;;;4.00;;
2213;SDS011;1113;42.018;23.986;2022-11-20T13:49:07;5.00;;;2.30;;
2213;SDS011;1113;42.018;23.986;2022-11-20T13:51:37;2.13;;;1.07;;
2213;SDS011;1113;42.018;23.986;2022-11-20T13:56:54;2.63;;;0.90;;
2213;SDS011;1113;42.018;23.986;2022-11-20T13:59:29;3.53;;;1.10;;
2213;SDS011;1113;42.018;23.986;2022-11-20T14:01:59;2.47;;;1.07;;
2213;SDS011;1113;42.018;23.986;2022-11-20T14:04:33;2.53;;;0.70;;
2213;SDS011;1113;42.018;23.986;2022-11-20T14:07:01;1.50;;;0.70;;
2213;SDS011;1113;42.018;23.986;2022-11-20T14:09:32;1.30;;;0.70;;
2213;SDS011;1113;42.018;23.986;2022-11-20T14:11:59;3.20;;;0.90;;
2213;SDS011;1113;42.018;23.986;2022-11-20T14:14:26;1.63;;;0.90;;
2213;SDS011;1113;42.018;23.986;2022-11-20T14:17:03;2.23;;;0.90;;
2213;SDS011;1113;42.018;23.986;2022-11-20T14:19:32;2.30;;;1.30;;
2213;SDS011;1113;42.018;23.986;2022-11-20T14:22:10;3.23;;;0.70;;
2213;SDS011;1113;42.018;23.986;2022-11-20T14:24:41;1.30;;;0.70;;
2213;SDS011;1113;42.018;23.986;2022-11-20T14:27:11;3.80;;;0.70;;
2213;SDS011;1113;42.018;23.986;2022-11-20T14:29:38;1.47;;;0.60;;
2213;SDS011;1113;42.018;23.986;2022-11-20T14:32:05;1.97;;;0.80;;
2213;SDS011;1113;42.018;23.986;2022-11-20T14:34:37;1.37;;;0.80;;
2213;SDS011;1113;42.018;23.986;2022-11-20T14:37:06;1.97;;;0.70;;
2213;SDS011;1113;42.018;23.986;2022-11-20T14:39:37;2.80;;;0.70;;
2213;SDS011;1113;42.018;23.986;2022-11-20T14:42:10;2.63;;;0.90;;
2213;SDS011;1113;42.018;23.986;2022-11-20T14:44:40;1.30;;;0.60;;
2213;SDS011;1113;42.018;23.986;2022-11-20T14:47:08;2.23;;;1.00;;
2213;SDS011;1113;42.018;23.986;2022-11-20T14:49:37;2.53;;;0.70;;
2213;SDS011;1113;42.018;23.986;2022-11-20T14:52:10;1.87;;;0.70;;
2213;SDS011;1113;42.018;23.986;2022-11-20T14:54:42;2.30;;;0.73;;
2213;SDS011;1113;42.018;23.986;2022-11-20T14:57:18;2.00;;;0.90;;
2213;SDS011;1113;42.018;23.986;2022-11-20T14:59:45;3.33;;;0.90;;
2213;SDS011;1113;42.018;23.986;2022-11-20T15:02:12;2.10;;;1.00;;
2213;SDS011;1113;42.018;23.986;2022-11-20T15:04:47;3.03;;;0.90;;
2213;SDS011;1113;42.018;23.986;2022-11-20T15:07:23;3.17;;;1.47;;
2213;SDS011;1113;42.018;23.986;2022-11-20T15:09:58;4.40;;;1.40;;
2213;SDS011;1113;42.018;23.986;2022-11-20T15:12:25;2.97;;;1.10;;